sensor_id;sensor_type;location;lat;lon;timestamp;pressure;altitude;pressure_sealevel;temperature;humidity
36664;BME280;53333;51.976;20.144;2022-11-15T00:00:06;100521.34;;;5.96;74.55
36664;BME280;53333;51.976;20.144;2022-11-15T00:02:59;100539.97;;;5.93;74.64
36664;BME280;53333;51.976;20.144;2022-11-15T00:05:51;100541.84;;;5.89;74.61
36664;BME280;53333;51.976;20.144;2022-11-15T00:08:43;100533.09;;;5.86;74.62
36664;BME280;53333;51.976;20.144;2022-11-15T00:11:37;100532.22;;;5.83;74.85
36664;BME280;53333;51.976;20.144;2022-11-15T00:14:29;100526.06;;;5.83;74.77
36664;BME280;53333;51.976;20.144;2022-11-15T00:17:22;100524.25;;;5.85;74.88
36664;BME280;53333;51.976;20.144;2022-11-15T00:20:14;100520.63;;;5.89;74.87
36664;BME280;53333;51.976;20.144;2022-11-15T00:23:07;100510.88;;;5.90;74.92
36664;BME280;53333;51.976;20.144;2022-11-15T00:26:00;100508.19;;;5.91;74.78
36664;BME280;53333;51.976;20.144;2022-11-15T00:28:53;100504.66;;;5.92;74.78
36664;BME280;53333;51.976;20.144;2022-11-15T00:31:46;100508.09;;;5.96;74.95
36664;BME280;53333;51.976;20.144;2022-11-15T00:34:38;100501.03;;;5.95;74.74
36664;BME280;53333;51.976;20.144;2022-11-15T00:37:30;100500.16;;;5.94;74.85
36664;BME280;53333;51.976;20.144;2022-11-15T00:40:22;100493.06;;;5.95;74.84
36664;BME280;53333;51.976;20.144;2022-11-15T00:43:14;100486.06;;;5.94;74.79
36664;BME280;53333;51.976;20.144;2022-11-15T00:46:08;100486.94;;;5.93;74.81
36664;BME280;53333;51.976;20.144;2022-11-15T00:49:00;100492.28;;;5.91;74.98
36664;BME280;53333;51.976;20.144;2022-11-15T00:51:51;100487.03;;;5.90;75.05
36664;BME280;53333;51.976;20.144;2022-11-15T00:54:43;100491.47;;;5.89;75.06
36664;BME280;53333;51.976;20.144;2022-11-15T00:57:35;100490.53;;;5.90;75.03
36664;BME280;53333;51.976;20.144;2022-11-15T01:00:27;100485.34;;;5.87;75.07
36664;BME280;53333;51.976;20.144;2022-11-15T01:03:20;100470.34;;;5.85;75.04
36664;BME280;53333;51.976;20.144;2022-11-15T01:06:13;100462.38;;;5.86;75.13
36664;BME280;53333;51.976;20.144;2022-11-15T01:09:05;100459.69;;;5.88;75.02
36664;BME280;53333;51.976;20.144;2022-11-15T01:11:57;100454.41;;;5.86;75.10
36664;BME280;53333;51.976;20.144;2022-11-15T01:14:49;100454.38;;;5.88;75.03
36664;BME280;53333;51.976;20.144;2022-11-15T01:17:41;100458.81;;;5.87;75.18
36664;BME280;53333;51.976;20.144;2022-11-15T01:20:39;100447.41;;;5.83;75.15
36664;BME280;53333;51.976;20.144;2022-11-15T01:23:31;100450.19;;;5.77;75.09
36664;BME280;53333;51.976;20.144;2022-11-15T01:26:24;100442.31;;;5.74;75.20
36664;BME280;53333;51.976;20.144;2022-11-15T01:29:16;100437.97;;;5.72;75.18
36664;BME280;53333;51.976;20.144;2022-11-15T01:32:08;100444.25;;;5.68;75.18
36664;BME280;53333;51.976;20.144;2022-11-15T01:35:00;100425.84;;;5.61;75.25
36664;BME280;53333;51.976;20.144;2022-11-15T01:37:54;100430.31;;;5.59;75.46
36664;BME280;53333;51.976;20.144;2022-11-15T01:40:46;100418.03;;;5.57;75.34
36664;BME280;53333;51.976;20.144;2022-11-15T01:43:39;100426.06;;;5.54;75.47
36664;BME280;53333;51.976;20.144;2022-11-15T01:46:33;100423.41;;;5.54;75.36
36664;BME280;53333;51.976;20.144;2022-11-15T01:49:27;100406.56;;;5.55;75.54
36664;BME280;53333;51.976;20.144;2022-11-15T01:52:22;100414.44;;;5.58;75.48
36664;BME280;53333;51.976;20.144;2022-11-15T01:55:19;100404.72;;;5.58;75.42
36664;BME280;53333;51.976;20.144;2022-11-15T01:58:13;100408.25;;;5.59;75.29
36664;BME280;53333;51.976;20.144;2022-11-15T02:01:05;100403.81;;;5.59;75.38
36664;BME280;53333;51.976;20.144;2022-11-15T02:03:59;100400.22;;;5.62;75.52
36664;BME280;53333;51.976;20.144;2022-11-15T02:06:53;100399.22;;;5.66;75.41
36664;BME280;53333;51.976;20.144;2022-11-15T02:09:45;100381.59;;;5.65;75.32
36664;BME280;53333;51.976;20.144;2022-11-15T02:12:40;100380.72;;;5.64;75.38
36664;BME280;53333;51.976;20.144;2022-11-15T02:15:38;100381.63;;;5.63;75.39
36664;BME280;53333;51.976;20.144;2022-11-15T02:18:35;100387.75;;;5.66;75.49
36664;BME280;53333;51.976;20.144;2022-11-15T02:21:35;100380.63;;;5.68;75.54
36664;BME280;53333;51.976;20.144;2022-11-15T02:24:59;100384.94;;;5.73;75.32
36664;BME280;53333;51.976;20.144;2022-11-15T02:28:20;100376.97;;;5.73;75.22
36664;BME280;53333;51.976;20.144;2022-11-15T02:31:26;100377.91;;;5.71;75.25
36664;BME280;53333;51.976;20.144;2022-11-15T02:34:26;100384.13;;;5.70;75.35
36664;BME280;53333;51.976;20.144;2022-11-15T02:37:36;100377.88;;;5.72;75.35
36664;BME280;53333;51.976;20.144;2022-11-15T02:40:38;100372.53;;;5.74;75.38
36664;BME280;53333;51.976;20.144;2022-11-15T02:43:42;100376.00;;;5.76;75.35
36664;BME280;53333;51.976;20.144;2022-11-15T02:46:51;100377.78;;;5.75;75.24
36664;BME280;53333;51.976;20.144;2022-11-15T02:50:06;100359.25;;;5.75;75.31
36664;BME280;53333;51.976;20.144;2022-11-15T02:52:59;100363.66;;;5.76;75.40
36664;BME280;53333;51.976;20.144;2022-11-15T02:55:53;100366.34;;;5.75;75.29
36664;BME280;53333;51.976;20.144;2022-11-15T02:58:58;100358.34;;;5.76;75.40
36664;BME280;53333;51.976;20.144;2022-11-15T03:02:06;100360.97;;;5.78;75.28
36664;BME280;53333;51.976;20.144;2022-11-15T03:05:10;100353.94;;;5.75;75.33
36664;BME280;53333;51.976;20.144;2022-11-15T03:08:12;100352.25;;;5.73;75.47
36664;BME280;53333;51.976;20.144;2022-11-15T03:11:08;100352.28;;;5.71;75.52
36664;BME280;53333;51.976;20.144;2022-11-15T03:14:07;100348.72;;;5.72;75.45
36664;BME280;53333;51.976;20.144;2022-11-15T03:17:07;100347.03;;;5.70;75.54
36664;BME280;53333;51.976;20.144;2022-11-15T03:20:06;100354.97;;;5.70;75.52
36664;BME280;53333;51.976;20.144;2022-11-15T03:23:03;100344.38;;;5.70;75.60
36664;BME280;53333;51.976;20.144;2022-11-15T03:25:58;100339.00;;;5.73;75.46
36664;BME280;53333;51.976;20.144;2022-11-15T03:28:54;100335.41;;;5.74;75.38
36664;BME280;53333;51.976;20.144;2022-11-15T03:31:53;100331.91;;;5.73;75.70
36664;BME280;53333;51.976;20.144;2022-11-15T03:34:51;100326.56;;;5.75;75.59
36664;BME280;53333;51.976;20.144;2022-11-15T03:37:48;100321.22;;;5.76;75.58
36664;BME280;53333;51.976;20.144;2022-11-15T03:40:47;100311.53;;;5.75;75.43
36664;BME280;53333;51.976;20.144;2022-11-15T03:43:42;100321.22;;;5.76;75.60
36664;BME280;53333;51.976;20.144;2022-11-15T03:46:44;100314.09;;;5.78;75.49
36664;BME280;53333;51.976;20.144;2022-11-15T03:49:42;100313.16;;;5.81;75.46
36664;BME280;53333;51.976;20.144;2022-11-15T03:52:39;100316.72;;;5.80;75.57
36664;BME280;53333;51.976;20.144;2022-11-15T03:55:32;100311.38;;;5.81;75.52
36664;BME280;53333;51.976;20.144;2022-11-15T03:58:25;100309.66;;;5.79;75.54
36664;BME280;53333;51.976;20.144;2022-11-15T04:01:17;100307.09;;;5.76;75.59
36664;BME280;53333;51.976;20.144;2022-11-15T04:04:09;100300.06;;;5.75;75.75
36664;BME280;53333;51.976;20.144;2022-11-15T04:07:01;100299.16;;;5.74;75.74
36664;BME280;53333;51.976;20.144;2022-11-15T04:09:55;100293.78;;;5.77;75.51
36664;BME280;53333;51.976;20.144;2022-11-15T04:12:56;100286.72;;;5.78;75.59
36664;BME280;53333;51.976;20.144;2022-11-15T04:15:48;100290.19;;;5.80;75.73
36664;BME280;53333;51.976;20.144;2022-11-15T04:18:40;100288.38;;;5.82;75.67
36664;BME280;53333;51.976;20.144;2022-11-15T04:21:33;100287.44;;;5.85;75.58
36664;BME280;53333;51.976;20.144;2022-11-15T04:24:42;100284.69;;;5.88;75.33
36664;BME280;53333;51.976;20.144;2022-11-15T04:27:35;100275.06;;;5.83;75.33
36664;BME280;53333;51.976;20.144;2022-11-15T04:30:27;100278.69;;;5.81;75.35
36664;BME280;53333;51.976;20.144;2022-11-15T04:33:21;100277.00;;;5.78;75.57
36664;BME280;53333;51.976;20.144;2022-11-15T04:36:13;100275.22;;;5.77;75.60
36664;BME280;53333;51.976;20.144;2022-11-15T04:39:28;100273.56;;;5.75;75.57
36664;BME280;53333;51.976;20.144;2022-11-15T04:42:20;100278.81;;;5.76;75.65
36664;BME280;53333;51.976;20.144;2022-11-15T04:45:14;100269.97;;;5.76;75.54
36664;BME280;53333;51.976;20.144;2022-11-15T04:48:06;100270.00;;;5.74;75.64
36664;BME280;53333;51.976;20.144;2022-11-15T04:50:58;100262.13;;;5.73;75.41
36664;BME280;53333;51.976;20.144;2022-11-15T04:53:51;100261.19;;;5.74;75.69
36664;BME280;53333;51.976;20.144;2022-11-15T04:56:43;100250.56;;;5.75;75.72
36664;BME280;53333;51.976;20.144;2022-11-15T04:59:35;100244.53;;;5.70;75.62
36664;BME280;53333;51.976;20.144;2022-11-15T05:02:29;100244.53;;;5.70;75.95
36664;BME280;53333;51.976;20.144;2022-11-15T05:05:40;100241.00;;;5.70;75.85
36664;BME280;53333;51.976;20.144;2022-11-15T05:08:32;100234.00;;;5.67;75.78
36664;BME280;53333;51.976;20.144;2022-11-15T05:11:24;100233.22;;;5.63;76.02
36664;BME280;53333;51.976;20.144;2022-11-15T05:14:18;100231.47;;;5.62;76.05
36664;BME280;53333;51.976;20.144;2022-11-15T05:17:10;100238.56;;;5.62;76.00
36664;BME280;53333;51.976;20.144;2022-11-15T05:20:04;100235.91;;;5.62;75.97
36664;BME280;53333;51.976;20.144;2022-11-15T05:22:56;100233.19;;;5.65;76.10
36664;BME280;53333;51.976;20.144;2022-11-15T05:25:48;100234.88;;;5.68;76.31
36664;BME280;53333;51.976;20.144;2022-11-15T05:28:40;100225.09;;;5.70;76.03
36664;BME280;53333;51.976;20.144;2022-11-15T05:31:32;100227.75;;;5.70;76.06
36664;BME280;53333;51.976;20.144;2022-11-15T05:34:24;100230.44;;;5.68;75.98
36664;BME280;53333;51.976;20.144;2022-11-15T05:37:18;100238.31;;;5.71;75.99
36664;BME280;53333;51.976;20.144;2022-11-15T05:40:11;100230.22;;;5.76;75.88
36664;BME280;53333;51.976;20.144;2022-11-15T05:43:03;100235.47;;;5.77;75.93
36664;BME280;53333;51.976;20.144;2022-11-15T05:45:56;100227.53;;;5.77;75.80
36664;BME280;53333;51.976;20.144;2022-11-15T05:48:50;100225.69;;;5.81;76.00
36664;BME280;53333;51.976;20.144;2022-11-15T05:51:44;100230.09;;;5.80;75.95
36664;BME280;53333;51.976;20.144;2022-11-15T05:54:39;100230.97;;;5.81;75.90
36664;BME280;53333;51.976;20.144;2022-11-15T05:57:31;100224.75;;;5.82;75.87
36664;BME280;53333;51.976;20.144;2022-11-15T06:00:23;100226.53;;;5.81;75.89
36664;BME280;53333;51.976;20.144;2022-11-15T06:03:15;100231.75;;;5.85;75.84
36664;BME280;53333;51.976;20.144;2022-11-15T06:06:07;100234.38;;;5.86;75.94
36664;BME280;53333;51.976;20.144;2022-11-15T06:09:06;100231.63;;;5.89;75.98
36664;BME280;53333;51.976;20.144;2022-11-15T06:11:59;100223.53;;;5.94;75.99
36664;BME280;53333;51.976;20.144;2022-11-15T06:14:52;100225.25;;;5.96;75.75
36664;BME280;53333;51.976;20.144;2022-11-15T06:17:44;100223.38;;;6.02;75.75
36664;BME280;53333;51.976;20.144;2022-11-15T06:20:37;100228.53;;;6.05;75.77
36664;BME280;53333;51.976;20.144;2022-11-15T06:23:33;100235.59;;;6.06;75.58
36664;BME280;53333;51.976;20.144;2022-11-15T06:26:25;100226.75;;;6.07;75.69
36664;BME280;53333;51.976;20.144;2022-11-15T06:29:18;100232.00;;;6.08;75.66
36664;BME280;53333;51.976;20.144;2022-11-15T06:32:11;100231.91;;;6.11;75.79
36664;BME280;53333;51.976;20.144;2022-11-15T06:35:03;100218.56;;;6.14;75.69
36664;BME280;53333;51.976;20.144;2022-11-15T06:37:57;100225.59;;;6.15;75.61
36664;BME280;53333;51.976;20.144;2022-11-15T06:40:53;100222.00;;;6.18;75.73
36664;BME280;53333;51.976;20.144;2022-11-15T06:43:45;100225.47;;;6.20;75.56
36664;BME280;53333;51.976;20.144;2022-11-15T06:46:39;100222.75;;;6.22;75.53
36664;BME280;53333;51.976;20.144;2022-11-15T06:49:32;100226.19;;;6.25;75.62
36664;BME280;53333;51.976;20.144;2022-11-15T06:52:24;100225.31;;;6.25;75.45
36664;BME280;53333;51.976;20.144;2022-11-15T06:55:17;100223.53;;;6.25;75.54
36664;BME280;53333;51.976;20.144;2022-11-15T06:58:13;100234.09;;;6.27;75.54
36664;BME280;53333;51.976;20.144;2022-11-15T07:01:18;100226.00;;;6.31;75.58
36664;BME280;53333;51.976;20.144;2022-11-15T07:04:12;100221.63;;;6.30;75.53
36664;BME280;53333;51.976;20.144;2022-11-15T07:07:04;100217.09;;;6.34;75.42
36664;BME280;53333;51.976;20.144;2022-11-15T07:09:56;100224.97;;;6.37;75.36
36664;BME280;53333;51.976;20.144;2022-11-15T07:12:48;100223.03;;;6.42;75.30
36664;BME280;53333;51.976;20.144;2022-11-15T07:15:40;100223.75;;;6.47;75.16
36664;BME280;53333;51.976;20.144;2022-11-15T07:18:34;100221.78;;;6.54;75.18
36664;BME280;53333;51.976;20.144;2022-11-15T07:21:28;100223.28;;;6.63;75.07
36664;BME280;53333;51.976;20.144;2022-11-15T07:24:20;100218.75;;;6.66;74.87
36664;BME280;53333;51.976;20.144;2022-11-15T07:27:12;100225.75;;;6.69;74.89
36664;BME280;53333;51.976;20.144;2022-11-15T07:30:05;100232.78;;;6.70;74.69
36664;BME280;53333;51.976;20.144;2022-11-15T07:32:58;100227.56;;;6.67;74.76
36664;BME280;53333;51.976;20.144;2022-11-15T07:35:51;100223.03;;;6.70;74.62
36664;BME280;53333;51.976;20.144;2022-11-15T07:38:45;100227.38;;;6.73;74.58
36664;BME280;53333;51.976;20.144;2022-11-15T07:41:37;100220.25;;;6.75;74.55
36664;BME280;53333;51.976;20.144;2022-11-15T07:44:29;100211.28;;;6.78;74.55
36664;BME280;53333;51.976;20.144;2022-11-15T07:47:21;100214.75;;;6.81;74.35
36664;BME280;53333;51.976;20.144;2022-11-15T07:50:14;100223.31;;;6.89;74.37
36664;BME280;53333;51.976;20.144;2022-11-15T07:53:07;100221.44;;;6.93;74.06
36664;BME280;53333;51.976;20.144;2022-11-15T07:56:00;100222.28;;;6.94;74.19
36664;BME280;53333;51.976;20.144;2022-11-15T07:58:52;100216.81;;;6.98;74.12
36664;BME280;53333;51.976;20.144;2022-11-15T08:01:45;100213.13;;;7.04;74.09
36664;BME280;53333;51.976;20.144;2022-11-15T08:04:37;100216.47;;;7.09;73.91
36664;BME280;53333;51.976;20.144;2022-11-15T08:07:30;100209.22;;;7.14;73.50
36664;BME280;53333;51.976;20.144;2022-11-15T08:10:25;100210.88;;;7.18;73.67
36664;BME280;53333;51.976;20.144;2022-11-15T08:13:20;100204.59;;;7.19;73.69
36664;BME280;53333;51.976;20.144;2022-11-15T08:16:12;100200.19;;;7.20;73.46
36664;BME280;53333;51.976;20.144;2022-11-15T08:19:04;100191.16;;;7.24;73.45
36664;BME280;53333;51.976;20.144;2022-11-15T08:21:56;100196.31;;;7.28;73.38
36664;BME280;53333;51.976;20.144;2022-11-15T08:24:48;100184.00;;;7.27;73.27
36664;BME280;53333;51.976;20.144;2022-11-15T08:27:40;100185.69;;;7.28;73.30
36664;BME280;53333;51.976;20.144;2022-11-15T08:30:38;100174.97;;;7.32;73.16
36664;BME280;53333;51.976;20.144;2022-11-15T08:33:32;100182.03;;;7.33;73.03
36664;BME280;53333;51.976;20.144;2022-11-15T08:36:25;100178.44;;;7.34;72.96
36664;BME280;53333;51.976;20.144;2022-11-15T08:39:26;100174.69;;;7.39;73.05
36664;BME280;53333;51.976;20.144;2022-11-15T08:42:18;100170.19;;;7.41;72.90
36664;BME280;53333;51.976;20.144;2022-11-15T08:45:10;100177.31;;;7.41;72.81
36664;BME280;53333;51.976;20.144;2022-11-15T08:48:04;100171.88;;;7.44;72.75
36664;BME280;53333;51.976;20.144;2022-11-15T08:50:57;100171.78;;;7.47;72.70
36664;BME280;53333;51.976;20.144;2022-11-15T08:53:49;100175.13;;;7.52;72.76
36664;BME280;53333;51.976;20.144;2022-11-15T08:56:41;100170.63;;;7.54;72.49
36664;BME280;53333;51.976;20.144;2022-11-15T08:59:33;100166.81;;;7.61;72.33
36664;BME280;53333;51.976;20.144;2022-11-15T09:02:26;100163.84;;;7.71;72.35
36664;BME280;53333;51.976;20.144;2022-11-15T09:05:19;100157.41;;;7.76;72.14
36664;BME280;53333;51.976;20.144;2022-11-15T09:08:12;100153.66;;;7.82;72.01
36664;BME280;53333;51.976;20.144;2022-11-15T09:11:24;100151.00;;;7.82;72.01
36664;BME280;53333;51.976;20.144;2022-11-15T09:14:17;100155.31;;;7.85;71.93
36664;BME280;53333;51.976;20.144;2022-11-15T09:17:09;100154.19;;;7.92;72.10
36664;BME280;53333;51.976;20.144;2022-11-15T09:20:02;100159.22;;;7.99;71.51
36664;BME280;53333;51.976;20.144;2022-11-15T09:22:59;100152.84;;;8.04;71.43
36664;BME280;53333;51.976;20.144;2022-11-15T09:25:51;100153.63;;;8.06;71.10
36664;BME280;53333;51.976;20.144;2022-11-15T09:28:43;100144.81;;;8.05;71.34
36664;BME280;53333;51.976;20.144;2022-11-15T09:31:36;100135.78;;;8.09;71.33
36664;BME280;53333;51.976;20.144;2022-11-15T09:34:30;100143.59;;;8.14;71.06
36664;BME280;53333;51.976;20.144;2022-11-15T09:37:22;100127.56;;;8.15;71.13
36664;BME280;53333;51.976;20.144;2022-11-15T09:40:17;100130.91;;;8.21;71.07
36664;BME280;53333;51.976;20.144;2022-11-15T09:43:27;100137.66;;;8.29;71.00
36664;BME280;53333;51.976;20.144;2022-11-15T09:46:26;100128.00;;;8.27;70.74
36664;BME280;53333;51.976;20.144;2022-11-15T09:49:24;100127.94;;;8.28;70.66
36664;BME280;53333;51.976;20.144;2022-11-15T09:52:27;100121.63;;;8.31;70.61
36664;BME280;53333;51.976;20.144;2022-11-15T09:55:01;100113.56;;;8.32;70.44
36664;BME280;53333;51.976;20.144;2022-11-15T09:57:38;100121.09;;;8.45;70.40
36664;BME280;53333;51.976;20.144;2022-11-15T10:00:18;100121.31;;;8.39;70.41
36664;BME280;53333;51.976;20.144;2022-11-15T10:03:14;100117.69;;;8.41;70.36
36664;BME280;53333;51.976;20.144;2022-11-15T10:05:50;100113.91;;;8.47;70.39
36664;BME280;53333;51.976;20.144;2022-11-15T10:08:46;100104.50;;;8.60;70.23
36664;BME280;53333;51.976;20.144;2022-11-15T10:11:24;100102.47;;;8.67;69.87
36664;BME280;53333;51.976;20.144;2022-11-15T10:14:14;100098.53;;;8.76;69.79
36664;BME280;53333;51.976;20.144;2022-11-15T10:20:14;100090.41;;;8.79;69.60
36664;BME280;53333;51.976;20.144;2022-11-15T10:22:51;100077.16;;;8.77;69.45
36664;BME280;53333;51.976;20.144;2022-11-15T10:25:27;100072.66;;;8.79;69.42
36664;BME280;53333;51.976;20.144;2022-11-15T10:28:05;100074.91;;;8.88;69.45
36664;BME280;53333;51.976;20.144;2022-11-15T10:30:45;100082.16;;;9.05;68.92
36664;BME280;53333;51.976;20.144;2022-11-15T10:33:30;100072.00;;;9.34;68.55
36664;BME280;53333;51.976;20.144;2022-11-15T10:36:19;100068.00;;;9.44;68.49
36664;BME280;53333;51.976;20.144;2022-11-15T10:38:57;100069.38;;;9.53;68.16
36664;BME280;53333;51.976;20.144;2022-11-15T10:41:36;100066.88;;;9.69;67.73
36664;BME280;53333;51.976;20.144;2022-11-15T10:44:17;100059.38;;;9.77;67.55
36664;BME280;53333;51.976;20.144;2022-11-15T10:50:27;100054.19;;;9.93;67.06
36664;BME280;53333;51.976;20.144;2022-11-15T10:53:01;100050.22;;;10.02;66.75
36664;BME280;53333;51.976;20.144;2022-11-15T10:55:36;100054.50;;;10.24;66.38
36664;BME280;53333;51.976;20.144;2022-11-15T10:58:21;100049.84;;;10.46;65.96
36664;BME280;53333;51.976;20.144;2022-11-15T11:00:56;100042.97;;;10.60;65.53
36664;BME280;53333;51.976;20.144;2022-11-15T11:03:46;100046.41;;;10.97;64.89
36664;BME280;53333;51.976;20.144;2022-11-15T11:06:32;100037.22;;;11.36;63.79
36664;BME280;53333;51.976;20.144;2022-11-15T11:09:27;100039.00;;;11.69;63.25
36664;BME280;53333;51.976;20.144;2022-11-15T11:12:02;100033.25;;;11.92;62.46
36664;BME280;53333;51.976;20.144;2022-11-15T11:14:38;100030.22;;;12.61;60.95
36664;BME280;53333;51.976;20.144;2022-11-15T11:17:17;100023.91;;;13.78;58.90
36664;BME280;53333;51.976;20.144;2022-11-15T11:20:05;100003.13;;;15.41;55.52
36664;BME280;53333;51.976;20.144;2022-11-15T11:22:53;100005.72;;;17.00;52.47
36664;BME280;53333;51.976;20.144;2022-11-15T11:25:35;100003.31;;;18.31;49.50
36664;BME280;53333;51.976;20.144;2022-11-15T11:28:18;99994.09;;;19.39;47.15
36664;BME280;53333;51.976;20.144;2022-11-15T11:31:04;99985.53;;;20.45;44.53
36664;BME280;53333;51.976;20.144;2022-11-15T11:33:44;99977.78;;;21.56;42.18
36664;BME280;53333;51.976;20.144;2022-11-15T11:36:26;99978.25;;;22.61;39.97
36664;BME280;53333;51.976;20.144;2022-11-15T11:39:21;99974.78;;;23.55;37.70
36664;BME280;53333;51.976;20.144;2022-11-15T11:42:03;99979.16;;;24.50;35.96
36664;BME280;53333;51.976;20.144;2022-11-15T11:44:48;99970.41;;;25.20;34.87
36664;BME280;53333;51.976;20.144;2022-11-15T11:47:30;99973.69;;;25.72;32.98
36664;BME280;53333;51.976;20.144;2022-11-15T11:50:11;99968.47;;;26.25;32.02
36664;BME280;53333;51.976;20.144;2022-11-15T11:52:56;99970.53;;;26.69;31.15
36664;BME280;53333;51.976;20.144;2022-11-15T11:55:39;99959.75;;;27.06;30.09
36664;BME280;53333;51.976;20.144;2022-11-15T11:58:19;99957.06;;;27.35;29.44
36664;BME280;53333;51.976;20.144;2022-11-15T12:00:57;99970.97;;;27.64;28.46
36664;BME280;53333;51.976;20.144;2022-11-15T12:03:47;99959.28;;;27.91;28.02
36664;BME280;53333;51.976;20.144;2022-11-15T12:06:27;99966.38;;;28.01;27.60
36664;BME280;53333;51.976;20.144;2022-11-15T12:09:12;99968.00;;;27.95;27.50
36664;BME280;53333;51.976;20.144;2022-11-15T12:11:55;99959.09;;;27.93;27.21
36664;BME280;53333;51.976;20.144;2022-11-15T12:14:34;99953.53;;;27.86;27.12
36664;BME280;53333;51.976;20.144;2022-11-15T12:17:10;99963.16;;;27.82;27.30
36664;BME280;53333;51.976;20.144;2022-11-15T12:19:46;99964.31;;;27.88;27.08
36664;BME280;53333;51.976;20.144;2022-11-15T12:22:28;99964.22;;;27.96;26.76
36664;BME280;53333;51.976;20.144;2022-11-15T12:25:15;99963.31;;;28.11;26.48
36664;BME280;53333;51.976;20.144;2022-11-15T12:27:54;99960.13;;;28.07;26.56
36664;BME280;53333;51.976;20.144;2022-11-15T12:30:41;99957.19;;;27.94;26.45
36664;BME280;53333;51.976;20.144;2022-11-15T12:33:35;99947.31;;;27.63;26.82
36664;BME280;53333;51.976;20.144;2022-11-15T12:36:12;99937.88;;;27.35;27.05
36664;BME280;53333;51.976;20.144;2022-11-15T12:38:55;99941.53;;;27.28;26.96
36664;BME280;53333;51.976;20.144;2022-11-15T12:41:30;99933.22;;;27.21;27.01
36664;BME280;53333;51.976;20.144;2022-11-15T12:44:10;99933.88;;;27.08;27.02
36664;BME280;53333;51.976;20.144;2022-11-15T12:47:02;99931.97;;;26.94;27.34
36664;BME280;53333;51.976;20.144;2022-11-15T12:49:46;99938.75;;;26.83;27.02
36664;BME280;53333;51.976;20.144;2022-11-15T12:52:23;99938.72;;;26.68;27.36
36664;BME280;53333;51.976;20.144;2022-11-15T12:54:59;99924.66;;;26.48;27.23
36664;BME280;53333;51.976;20.144;2022-11-15T12:57:44;99925.06;;;26.22;27.52
36664;BME280;53333;51.976;20.144;2022-11-15T13:00:44;99929.50;;;25.91;28.11
36664;BME280;53333;51.976;20.144;2022-11-15T13:03:27;99917.00;;;25.66;28.34
36664;BME280;53333;51.976;20.144;2022-11-15T13:06:09;99917.59;;;25.45;28.21
36664;BME280;53333;51.976;20.144;2022-11-15T13:09:03;99910.13;;;25.22;28.53
36664;BME280;53333;51.976;20.144;2022-11-15T13:11:51;99903.38;;;24.93;28.63
36664;BME280;53333;51.976;20.144;2022-11-15T13:14:49;99910.78;;;24.60;29.48
36664;BME280;53333;51.976;20.144;2022-11-15T13:17:34;99903.41;;;24.36;29.78
36664;BME280;53333;51.976;20.144;2022-11-15T13:20:27;99904.09;;;24.05;30.17
36664;BME280;53333;51.976;20.144;2022-11-15T13:23:07;99892.56;;;23.76;30.16
36664;BME280;53333;51.976;20.144;2022-11-15T13:26:10;99887.00;;;23.35;30.93
36664;BME280;53333;51.976;20.144;2022-11-15T13:28:46;99888.94;;;22.91;31.71
36664;BME280;53333;51.976;20.144;2022-11-15T13:31:41;99893.81;;;22.53;32.14
36664;BME280;53333;51.976;20.144;2022-11-15T13:34:26;99894.44;;;22.10;32.68
36664;BME280;53333;51.976;20.144;2022-11-15T13:37:29;99887.38;;;21.64;33.09
36664;BME280;53333;51.976;20.144;2022-11-15T13:40:22;99885.06;;;21.31;33.95
36664;BME280;53333;51.976;20.144;2022-11-15T13:42:57;99879.97;;;20.91;34.17
36664;BME280;53333;51.976;20.144;2022-11-15T13:45:30;99870.91;;;20.53;34.92
36664;BME280;53333;51.976;20.144;2022-11-15T13:48:08;99869.94;;;20.14;35.23
36664;BME280;53333;51.976;20.144;2022-11-15T13:50:41;99876.22;;;19.76;35.93
36664;BME280;53333;51.976;20.144;2022-11-15T13:53:15;99870.22;;;19.32;36.95
36664;BME280;53333;51.976;20.144;2022-11-15T13:55:49;99869.81;;;18.75;37.88
36664;BME280;53333;51.976;20.144;2022-11-15T13:58:23;99869.66;;;18.03;38.99
36664;BME280;53333;51.976;20.144;2022-11-15T14:01:01;99861.38;;;17.29;39.83
36664;BME280;53333;51.976;20.144;2022-11-15T14:03:42;99867.25;;;16.55;41.57
36664;BME280;53333;51.976;20.144;2022-11-15T14:06:21;99876.19;;;15.84;42.45
36664;BME280;53333;51.976;20.144;2022-11-15T14:09:23;99882.88;;;15.17;43.66
36664;BME280;53333;51.976;20.144;2022-11-15T14:11:58;99884.41;;;14.57;45.07
36664;BME280;53333;51.976;20.144;2022-11-15T14:14:31;99880.56;;;14.08;46.36
36664;BME280;53333;51.976;20.144;2022-11-15T14:17:05;99881.41;;;13.69;45.36
36664;BME280;53333;51.976;20.144;2022-11-15T14:19:53;99883.03;;;13.15;47.62
36664;BME280;53333;51.976;20.144;2022-11-15T14:22:28;99890.91;;;12.75;48.93
36664;BME280;53333;51.976;20.144;2022-11-15T14:25:15;99879.66;;;12.40;49.58
36664;BME280;53333;51.976;20.144;2022-11-15T14:28:29;99876.34;;;12.06;50.00
36664;BME280;53333;51.976;20.144;2022-11-15T14:31:13;99879.25;;;11.71;51.44
36664;BME280;53333;51.976;20.144;2022-11-15T14:33:47;99890.75;;;11.41;52.36
36664;BME280;53333;51.976;20.144;2022-11-15T14:36:21;99892.13;;;11.16;52.76
36664;BME280;53333;51.976;20.144;2022-11-15T14:38:55;99895.03;;;10.96;53.59
36664;BME280;53333;51.976;20.144;2022-11-15T14:41:29;99894.28;;;10.76;54.32
36664;BME280;53333;51.976;20.144;2022-11-15T14:44:08;99889.84;;;10.59;55.13
36664;BME280;53333;51.976;20.144;2022-11-15T14:46:46;99884.53;;;10.42;55.40
36664;BME280;53333;51.976;20.144;2022-11-15T14:49:22;99883.66;;;10.24;55.78
36664;BME280;53333;51.976;20.144;2022-11-15T14:51:57;99882.81;;;10.06;56.64
36664;BME280;53333;51.976;20.144;2022-11-15T14:54:33;99887.97;;;9.91;56.97
36664;BME280;53333;51.976;20.144;2022-11-15T14:57:07;99881.50;;;9.78;57.17